Aviation Digital Data Service (ADDS)

Output produced by METARs form (0511 UTC 22 October 2018)
found at http://www.aviationweather.gov/metar/data/
 
METAR text: KBHM 220453Z 00000KT 10SM CLR 06/03 A3027 RMK AO2 SLP251 T00560033
Conditions at: KBHM (BIRMINGHAM , AL, US) observed 0453 UTC 22 October 2018
Temperature: 5.6°C (42°F)
Dewpoint: 3.3°C (38°F) [RH = 85%]
Pressure (altimeter): 30.27 inches Hg (1025.1 mb)
[Sea-level pressure: 1025.1 mb]
Winds: calm
Visibility: 10 or more miles (16+ km)
Ceiling: at least 12,000 feet AGL
Clouds: sky clear below 12,000 feet AGL
Weather: no significant weather observed at this time

Forecast for: KBHM (BIRMINGHAM , AL, US)
Text: KBHM 212337Z 2200/2224 36008KT P6SM SKC
Forecast period: 0000 to 0200 UTC 22 October 2018
Forecast type: FROM: standard forecast or significant change
Winds: from the N (360 degrees) at 9 MPH (8 knots; 4.1 m/s)
Visibility: 6 or more miles 10+ km)
Clouds: clear skies
Weather: no significant weather forecast for this period
Text: FM220200 00000KT P6SM SKC
Forecast period: 0200 UTC 22 October 2018 to 0000 UTC 23 October 2018
Forecast type: FROM: standard forecast or significant change
Winds: calm
Visibility: 6 or more miles 10+ km)
Clouds: clear skies
Weather: no significant weather forecast for this period